Time;durP1;ratioP1;P1;durP2;ratioP2;P2;SDS_P1;SDS_P2;PMS_P1;PMS_P2;Temp;Humidity;BMP_temperature;BMP_pressure;BME280_temperature;BME280_humidity;BME280_pressure;Samples;Min_cycle;Max_cycle;Signal;HPM_P1;HPM_P2
2023/01/27 00:00:53;;;;;;;14.13;7.78;;;;;;;;;;6198714;23;20016;-76
2023/01/27 00:03:19;;;;;;;12.40;7.65;;;;;;;;;;6198914;23;20016;-77
2023/01/27 00:05:46;;;;;;;13.35;7.55;;;;;;;;;;6175071;23;20760;-77
2023/01/27 00:08:12;;;;;;;13.18;7.22;;;;;;;;;;6200387;23;20021;-76
2023/01/27 00:10:39;;;;;;;11.98;7.05;;;;;;;;;;6197878;23;20035;-77
2023/01/27 00:15:49;;;;;;;11.48;5.90;;;;;;;;;;6179918;23;20031;-77
2023/01/27 00:18:15;;;;;;;8.43;6.20;;;;;;;;;;6200953;23;20104;-75
2023/01/27 00:26:15;;;;;;;10.52;6.28;;;;;;;;;;6200244;23;20020;-77
2023/01/27 00:28:42;;;;;;;8.35;5.90;;;;;;;;;;6199075;23;20021;-78
2023/01/27 00:33:55;;;;;;;11.88;6.82;;;;;;;;;;6198498;23;20704;-77
2023/01/27 00:36:21;;;;;;;7.07;5.55;;;;;;;;;;6173168;23;20017;-77
2023/01/27 00:38:47;;;;;;;10.35;6.10;;;;;;;;;;6174031;23;20017;-77
2023/01/27 00:41:14;;;;;;;12.18;6.47;;;;;;;;;;6172988;23;20054;-76
2023/01/27 00:43:43;;;;;;;10.02;6.15;;;;;;;;;;6173407;23;20052;-77
2023/01/27 00:46:15;;;;;;;11.32;6.10;;;;;;;;;;6198558;23;20017;-77
2023/01/27 00:48:41;;;;;;;10.00;5.50;;;;;;;;;;6197400;23;20079;-76
2023/01/27 00:51:07;;;;;;;12.30;5.45;;;;;;;;;;6198913;23;20021;-78
2023/01/27 00:53:34;;;;;;;8.75;4.82;;;;;;;;;;6196431;23;20020;-76
2023/01/27 00:56:00;;;;;;;14.32;5.93;;;;;;;;;;6198631;23;20029;-77
2023/01/27 00:58:27;;;;;;;10.45;4.35;;;;;;;;;;6198873;23;20013;-76
2023/01/27 01:00:54;;;;;;;7.15;3.90;;;;;;;;;;6175613;23;20013;-77
2023/01/27 01:03:20;;;;;;;5.65;3.80;;;;;;;;;;6182401;23;20023;-76
2023/01/27 01:05:46;;;;;;;9.05;3.38;;;;;;;;;;6188660;23;20016;-76
2023/01/27 01:08:12;;;;;;;11.88;4.18;;;;;;;;;;6215899;23;20017;-77
2023/01/27 01:10:38;;;;;;;7.38;3.50;;;;;;;;;;6229202;23;20042;-78
2023/01/27 01:13:06;;;;;;;8.52;2.95;;;;;;;;;;6227831;23;20043;-77
2023/01/27 01:15:36;;;;;;;5.75;2.97;;;;;;;;;;6202794;23;20762;-76
2023/01/27 01:18:03;;;;;;;5.15;2.70;;;;;;;;;;6198071;23;20095;-77
2023/01/27 01:20:29;;;;;;;7.10;3.42;;;;;;;;;;6200347;23;20021;-76
2023/01/27 01:22:56;;;;;;;8.88;2.85;;;;;;;;;;6197067;23;20455;-76
2023/01/27 01:25:22;;;;;;;11.20;3.22;;;;;;;;;;6196465;23;20020;-76
2023/01/27 01:27:48;;;;;;;8.15;2.72;;;;;;;;;;6198933;23;20029;-76
2023/01/27 01:30:14;;;;;;;13.65;3.55;;;;;;;;;;6172766;23;20028;-76
2023/01/27 01:32:40;;;;;;;12.68;2.67;;;;;;;;;;6169652;23;20025;-76
2023/01/27 01:35:06;;;;;;;7.95;2.65;;;;;;;;;;6198331;23;20023;-77
2023/01/27 01:37:32;;;;;;;5.93;2.40;;;;;;;;;;6198656;23;20055;-77
2023/01/27 01:39:58;;;;;;;7.68;2.42;;;;;;;;;;6199787;23;20020;-77
2023/01/27 01:42:25;;;;;;;7.30;2.08;;;;;;;;;;6199582;23;20016;-76
2023/01/27 01:44:54;;;;;;;6.65;2.25;;;;;;;;;;6199862;23;20019;-76
2023/01/27 01:47:20;;;;;;;5.50;1.95;;;;;;;;;;6200989;23;20016;-77
2023/01/27 01:49:46;;;;;;;9.07;1.80;;;;;;;;;;6174476;23;20649;-77
2023/01/27 01:52:14;;;;;;;5.03;1.65;;;;;;;;;;6150891;23;20016;-77
2023/01/27 01:54:46;;;;;;;6.93;1.40;;;;;;;;;;6173821;23;20056;-76
2023/01/27 01:57:18;;;;;;;4.00;1.65;;;;;;;;;;6197496;23;20406;-76
2023/01/27 01:59:46;;;;;;;4.72;1.52;;;;;;;;;;6174584;23;20055;-76
2023/01/27 02:02:13;;;;;;;4.32;1.40;;;;;;;;;;6201998;23;20024;-78
2023/01/27 02:04:46;;;;;;;4.13;1.63;;;;;;;;;;6199314;23;20027;-78
2023/01/27 02:07:31;;;;;;;4.93;1.65;;;;;;;;;;6174568;23;20020;-76
2023/01/27 02:09:58;;;;;;;4.22;1.33;;;;;;;;;;6173868;23;20020;-76
2023/01/27 02:12:24;;;;;;;6.80;1.52;;;;;;;;;;6171402;23;20062;-77
2023/01/27 02:14:50;;;;;;;4.75;1.92;;;;;;;;;;6173678;23;20032;-77
2023/01/27 02:17:16;;;;;;;4.05;1.40;;;;;;;;;;6198915;23;20024;-77
2023/01/27 02:20:02;;;;;;;6.60;1.60;;;;;;;;;;6198046;23;20021;-77
2023/01/27 02:22:55;;;;;;;6.15;1.77;;;;;;;;;;6174207;23;20031;-77
2023/01/27 02:25:27;;;;;;;3.85;1.42;;;;;;;;;;6198754;23;20094;-76
2023/01/27 02:27:53;;;;;;;4.32;1.38;;;;;;;;;;6198856;23;20090;-76
2023/01/27 02:30:19;;;;;;;15.30;1.88;;;;;;;;;;6205269;23;20059;-76
2023/01/27 02:32:45;;;;;;;3.45;1.20;;;;;;;;;;6201833;23;20020;-77
2023/01/27 02:35:15;;;;;;;3.20;1.67;;;;;;;;;;6178156;23;20015;-75
2023/01/27 02:37:41;;;;;;;3.97;1.48;;;;;;;;;;6202783;23;20012;-76
2023/01/27 02:40:08;;;;;;;5.32;1.52;;;;;;;;;;6178396;23;20098;-77
2023/01/27 02:42:34;;;;;;;2.53;1.42;;;;;;;;;;6202754;23;20115;-76
2023/01/27 02:45:00;;;;;;;3.08;1.20;;;;;;;;;;6229617;23;20016;-77
2023/01/27 02:47:27;;;;;;;2.15;1.30;;;;;;;;;;6229390;23;20016;-77
2023/01/27 02:49:53;;;;;;;3.15;1.48;;;;;;;;;;6205364;23;20020;-77
2023/01/27 02:52:20;;;;;;;3.53;1.10;;;;;;;;;;6212714;23;20020;-76
2023/01/27 02:54:46;;;;;;;2.72;1.25;;;;;;;;;;6193462;23;20047;-77
2023/01/27 02:57:12;;;;;;;4.72;1.25;;;;;;;;;;6247462;23;20007;-76
2023/01/27 02:59:38;;;;;;;7.18;1.80;;;;;;;;;;6206744;23;20012;-76
2023/01/27 03:02:04;;;;;;;4.85;1.10;;;;;;;;;;6232466;23;20008;-77
2023/01/27 03:04:30;;;;;;;5.88;1.63;;;;;;;;;;6206663;23;20016;-77
2023/01/27 03:06:56;;;;;;;8.13;1.70;;;;;;;;;;6175888;23;20047;-76
2023/01/27 03:09:22;;;;;;;3.05;1.15;;;;;;;;;;6152273;23;20070;-76
2023/01/27 03:20:03;;;;;;;4.75;1.33;;;;;;;;;;6202700;23;20734;-76
2023/01/27 03:22:29;;;;;;;4.18;1.10;;;;;;;;;;6202400;23;20024;-77
2023/01/27 03:24:55;;;;;;;2.22;1.05;;;;;;;;;;6203832;23;20110;-77
2023/01/27 03:27:21;;;;;;;4.82;1.40;;;;;;;;;;6177647;23;20072;-77
2023/01/27 03:29:53;;;;;;;4.40;1.05;;;;;;;;;;6177687;23;20090;-77
2023/01/27 03:32:19;;;;;;;3.55;1.10;;;;;;;;;;6153132;23;20425;-77
2023/01/27 03:34:45;;;;;;;5.90;1.38;;;;;;;;;;6177527;23;20050;-76
2023/01/27 03:48:10;;;;;;;;;;;;;;;;;;6183977;23;20074;-76
2023/01/27 03:50:37;;;;;;;2.45;1.27;;;;;;;;;;6204236;23;19955;-76
2023/01/27 03:53:03;;;;;;;3.42;1.20;;;;;;;;;;6231316;23;20012;-77
2023/01/27 03:55:33;;;;;;;5.38;1.45;;;;;;;;;;6178336;23;20024;-77
2023/01/27 03:58:18;;;;;;;6.25;1.25;;;;;;;;;;6229860;23;20087;-77
2023/01/27 04:00:45;;;;;;;3.95;1.30;;;;;;;;;;6208084;23;20097;-76
2023/01/27 04:08:43;;;;;;;4.93;1.60;;;;;;;;;;6231443;23;20458;-77
2023/01/27 04:14:00;;;;;;;3.33;1.80;;;;;;;;;;6230800;23;20058;-76
2023/01/27 04:16:27;;;;;;;3.67;1.73;;;;;;;;;;6229403;22;20012;-76
2023/01/27 04:18:54;;;;;;;5.32;1.92;;;;;;;;;;6177414;23;20019;-76
2023/01/27 04:21:20;;;;;;;2.63;1.70;;;;;;;;;;6202617;23;20366;-77
2023/01/27 04:23:46;;;;;;;3.70;1.88;;;;;;;;;;6152074;23;20016;-76
2023/01/27 04:26:12;;;;;;;3.28;1.85;;;;;;;;;;6177262;23;20016;-75
2023/01/27 04:28:38;;;;;;;4.88;1.83;;;;;;;;;;6177460;23;20024;-76
2023/01/27 04:31:04;;;;;;;6.38;2.33;;;;;;;;;;6201240;23;20024;-77
2023/01/27 04:33:31;;;;;;;6.82;2.17;;;;;;;;;;6202432;23;20028;-77
2023/01/27 04:35:57;;;;;;;3.20;2.25;;;;;;;;;;6202454;23;20337;-76
2023/01/27 04:38:23;;;;;;;4.93;2.13;;;;;;;;;;6228416;23;20027;-77
2023/01/27 04:40:49;;;;;;;4.68;2.33;;;;;;;;;;6200936;23;20123;-75
2023/01/27 04:43:15;;;;;;;5.28;2.08;;;;;;;;;;6202198;23;20074;-77
2023/01/27 04:45:41;;;;;;;6.28;2.17;;;;;;;;;;6176601;23;20522;-76
2023/01/27 04:48:07;;;;;;;8.10;2.08;;;;;;;;;;6222349;23;20449;-76
2023/01/27 04:50:33;;;;;;;5.70;1.77;;;;;;;;;;6231651;23;20020;-76
2023/01/27 04:52:59;;;;;;;3.92;1.83;;;;;;;;;;6207576;23;20031;-75
2023/01/27 04:55:26;;;;;;;2.38;1.27;;;;;;;;;;6211836;23;20402;-76
2023/01/27 04:57:52;;;;;;;6.60;1.52;;;;;;;;;;6227924;23;20026;-76
2023/01/27 05:00:19;;;;;;;5.35;1.48;;;;;;;;;;6199732;23;20047;-76
2023/01/27 05:02:45;;;;;;;5.72;1.58;;;;;;;;;;6228665;23;20024;-77
2023/01/27 05:05:11;;;;;;;8.60;1.65;;;;;;;;;;6199394;23;20018;-77
2023/01/27 05:07:38;;;;;;;4.40;1.30;;;;;;;;;;6202113;23;20037;-76
2023/01/27 05:10:04;;;;;;;4.18;2.20;;;;;;;;;;6202336;23;20023;-76
2023/01/27 05:12:31;;;;;;;5.03;1.73;;;;;;;;;;6176419;23;20059;-76
2023/01/27 05:14:57;;;;;;;5.05;1.15;;;;;;;;;;6203964;23;20035;-76
2023/01/27 05:17:23;;;;;;;4.05;1.63;;;;;;;;;;6177430;23;20095;-76
2023/01/27 05:19:49;;;;;;;6.70;1.42;;;;;;;;;;6203037;23;20501;-77
2023/01/27 05:22:15;;;;;;;6.28;1.40;;;;;;;;;;6178731;23;20308;-76
2023/01/27 05:24:41;;;;;;;4.70;1.40;;;;;;;;;;6154755;23;20016;-76
2023/01/27 05:27:07;;;;;;;3.75;1.00;;;;;;;;;;6204669;23;20960;-76
2023/01/27 05:29:33;;;;;;;7.03;1.63;;;;;;;;;;6204411;23;20016;-77
2023/01/27 05:31:59;;;;;;;5.25;1.20;;;;;;;;;;6226646;23;20104;-76
2023/01/27 05:34:25;;;;;;;4.47;1.08;;;;;;;;;;6202522;23;20122;-77
2023/01/27 05:36:52;;;;;;;7.22;1.20;;;;;;;;;;6205482;23;20012;-76
2023/01/27 05:39:18;;;;;;;3.88;1.23;;;;;;;;;;6206041;23;20315;-76
2023/01/27 05:41:44;;;;;;;3.30;1.10;;;;;;;;;;6153491;23;20366;-76
2023/01/27 05:44:11;;;;;;;4.68;0.90;;;;;;;;;;6176563;23;20020;-75
2023/01/27 05:46:39;;;;;;;4.00;1.20;;;;;;;;;;6201778;23;20115;-75
2023/01/27 05:49:05;;;;;;;3.95;1.10;;;;;;;;;;6202660;23;20455;-75
2023/01/27 05:51:38;;;;;;;3.20;0.90;;;;;;;;;;6229033;23;20415;-75
2023/01/27 05:54:05;;;;;;;4.97;1.33;;;;;;;;;;6229892;23;20020;-76
2023/01/27 05:56:32;;;;;;;2.03;1.10;;;;;;;;;;6177615;23;20030;-76
2023/01/27 05:58:58;;;;;;;3.30;1.10;;;;;;;;;;6204435;23;20051;-76
2023/01/27 06:01:25;;;;;;;4.32;1.17;;;;;;;;;;6231537;23;20367;-77
2023/01/27 06:03:52;;;;;;;9.50;2.42;;;;;;;;;;6179235;23;20043;-76
2023/01/27 06:06:19;;;;;;;2.55;0.90;;;;;;;;;;6203125;23;20476;-76
2023/01/27 06:08:46;;;;;;;4.00;1.02;;;;;;;;;;6202663;23;20099;-77
2023/01/27 06:11:12;;;;;;;4.82;1.13;;;;;;;;;;6179263;23;20047;-76
2023/01/27 06:13:39;;;;;;;4.13;1.10;;;;;;;;;;6204876;23;20109;-76
2023/01/27 06:16:10;;;;;;;2.20;0.80;;;;;;;;;;6203358;23;20051;-77
2023/01/27 06:18:36;;;;;;;5.65;1.35;;;;;;;;;;6179308;23;20015;-76
2023/01/27 06:21:06;;;;;;;4.93;1.17;;;;;;;;;;6180085;23;20023;-76
2023/01/27 06:23:32;;;;;;;7.53;1.15;;;;;;;;;;6182908;23;20012;-76
2023/01/27 06:26:03;;;;;;;4.68;1.00;;;;;;;;;;6192028;23;20624;-76
2023/01/27 06:28:29;;;;;;;5.10;1.30;;;;;;;;;;6217606;23;20023;-77
2023/01/27 06:30:55;;;;;;;2.55;1.02;;;;;;;;;;6232287;23;20023;-77
2023/01/27 06:33:22;;;;;;;6.70;1.25;;;;;;;;;;6182256;23;20031;-75
2023/01/27 06:35:48;;;;;;;12.32;1.55;;;;;;;;;;6239789;23;20020;-75
2023/01/27 06:38:14;;;;;;;7.88;0.98;;;;;;;;;;6202175;23;20024;-78
2023/01/27 06:40:40;;;;;;;5.30;1.05;;;;;;;;;;6153282;23;20689;-77
2023/01/27 06:43:11;;;;;;;8.90;1.48;;;;;;;;;;6177491;23;20022;-77
2023/01/27 06:45:37;;;;;;;4.47;1.20;;;;;;;;;;6233643;23;20016;-76
2023/01/27 06:48:04;;;;;;;5.82;1.45;;;;;;;;;;6180369;23;20019;-76
2023/01/27 06:50:33;;;;;;;8.48;1.38;;;;;;;;;;6206030;23;20818;-77
2023/01/27 06:53:00;;;;;;;10.75;1.52;;;;;;;;;;6207565;23;20023;-76
2023/01/27 06:55:30;;;;;;;5.93;1.60;;;;;;;;;;6212760;23;20069;-76
2023/01/27 06:57:56;;;;;;;3.78;1.40;;;;;;;;;;6186830;23;20112;-76
2023/01/27 07:00:22;;;;;;;3.45;1.40;;;;;;;;;;6181927;23;20093;-76
2023/01/27 07:02:49;;;;;;;8.15;1.67;;;;;;;;;;6208549;23;20523;-76
2023/01/27 07:05:15;;;;;;;8.65;1.63;;;;;;;;;;6206275;23;20020;-75
2023/01/27 07:07:41;;;;;;;15.35;1.80;;;;;;;;;;6205900;23;20016;-77
2023/01/27 07:10:08;;;;;;;9.23;1.80;;;;;;;;;;6205620;23;20016;-77
2023/01/27 07:12:36;;;;;;;8.20;1.70;;;;;;;;;;6232263;23;20020;-75
2023/01/27 07:15:06;;;;;;;9.43;3.15;;;;;;;;;;6180841;23;20020;-75
2023/01/27 07:17:32;;;;;;;5.07;1.70;;;;;;;;;;6206885;23;20024;-75
2023/01/27 07:19:58;;;;;;;8.60;2.50;;;;;;;;;;6182458;23;20043;-75
2023/01/27 07:22:26;;;;;;;7.43;1.88;;;;;;;;;;6207627;23;20012;-76
2023/01/27 07:24:55;;;;;;;6.32;1.63;;;;;;;;;;6234157;23;20018;-76
2023/01/27 07:27:22;;;;;;;11.07;2.10;;;;;;;;;;6208025;23;20107;-75
2023/01/27 07:29:48;;;;;;;15.77;2.65;;;;;;;;;;6234184;23;20716;-76
2023/01/27 07:32:14;;;;;;;14.68;2.30;;;;;;;;;;6182671;23;20059;-77
2023/01/27 07:34:41;;;;;;;8.13;2.20;;;;;;;;;;6206092;23;20585;-77
2023/01/27 07:37:07;;;;;;;7.63;3.22;;;;;;;;;;6207876;23;20016;-78
2023/01/27 07:39:33;;;;;;;8.27;2.03;;;;;;;;;;6181837;23;20016;-78
2023/01/27 07:42:00;;;;;;;8.07;2.10;;;;;;;;;;6233429;23;20747;-77
2023/01/27 07:44:27;;;;;;;8.65;3.20;;;;;;;;;;6234822;23;20072;-76
2023/01/27 07:46:53;;;;;;;7.97;2.20;;;;;;;;;;6233488;23;20019;-75
2023/01/27 07:49:19;;;;;;;9.40;2.13;;;;;;;;;;6205600;23;20089;-77
2023/01/27 07:51:45;;;;;;;6.28;2.05;;;;;;;;;;6232885;23;20020;-76
2023/01/27 07:54:12;;;;;;;6.70;2.50;;;;;;;;;;6206444;23;20020;-75
2023/01/27 07:56:38;;;;;;;6.70;2.03;;;;;;;;;;6204744;23;20046;-77
2023/01/27 07:59:04;;;;;;;10.65;4.25;;;;;;;;;;6232842;23;20016;-78
2023/01/27 08:01:31;;;;;;;11.02;2.50;;;;;;;;;;6236699;23;20090;-77
2023/01/27 08:03:58;;;;;;;8.88;2.33;;;;;;;;;;6194638;23;20012;-77
2023/01/27 08:06:24;;;;;;;8.70;2.10;;;;;;;;;;6217818;23;20050;-77
2023/01/27 08:08:50;;;;;;;7.00;2.08;;;;;;;;;;6210875;23;20004;-77
2023/01/27 08:11:17;;;;;;;9.18;2.05;;;;;;;;;;6261517;22;20072;-77
2023/01/27 08:13:43;;;;;;;7.53;3.05;;;;;;;;;;6182067;23;20015;-77
2023/01/27 08:16:11;;;;;;;7.90;2.00;;;;;;;;;;6205691;23;20024;-77
2023/01/27 08:18:37;;;;;;;5.90;2.22;;;;;;;;;;6204461;23;20027;-78
2023/01/27 08:21:04;;;;;;;7.47;2.40;;;;;;;;;;6204872;23;20016;-78
2023/01/27 08:23:31;;;;;;;11.95;2.30;;;;;;;;;;6180091;23;20020;-76
2023/01/27 08:25:59;;;;;;;6.60;2.10;;;;;;;;;;6208217;23;20016;-75
2023/01/27 08:28:26;;;;;;;8.68;2.72;;;;;;;;;;6207502;23;20024;-77
2023/01/27 08:30:52;;;;;;;8.15;2.33;;;;;;;;;;6206043;23;20476;-76
2023/01/27 08:33:19;;;;;;;6.43;1.88;;;;;;;;;;6204549;23;20031;-78
2023/01/27 08:35:45;;;;;;;9.70;2.53;;;;;;;;;;6155319;23;20778;-77
2023/01/27 08:38:12;;;;;;;8.15;2.45;;;;;;;;;;6179584;23;20020;-78
2023/01/27 08:40:39;;;;;;;12.63;2.45;;;;;;;;;;6181773;23;20043;-78
2023/01/27 08:43:05;;;;;;;6.53;2.83;;;;;;;;;;6207273;23;20098;-78
2023/01/27 08:45:32;;;;;;;5.18;2.22;;;;;;;;;;6207748;23;20016;-78
2023/01/27 08:47:58;;;;;;;6.60;2.28;;;;;;;;;;6180598;23;20016;-77
2023/01/27 08:50:24;;;;;;;8.07;2.58;;;;;;;;;;6232573;23;20016;-78
2023/01/27 08:52:50;;;;;;;4.55;2.17;;;;;;;;;;6204991;23;20023;-78
2023/01/27 08:55:16;;;;;;;6.80;2.72;;;;;;;;;;6178198;23;20066;-78
2023/01/27 08:57:43;;;;;;;10.48;2.70;;;;;;;;;;6154948;23;20496;-77
2023/01/27 09:00:13;;;;;;;11.50;2.55;;;;;;;;;;6179475;23;20020;-77
2023/01/27 09:02:39;;;;;;;7.60;2.40;;;;;;;;;;6180804;23;20441;-77
2023/01/27 09:05:06;;;;;;;9.25;2.40;;;;;;;;;;6206537;23;20016;-75
2023/01/27 09:07:33;;;;;;;11.27;2.70;;;;;;;;;;6206878;23;20012;-76
2023/01/27 09:09:59;;;;;;;7.30;2.45;;;;;;;;;;6231788;23;20174;-77
2023/01/27 09:12:25;;;;;;;11.07;2.13;;;;;;;;;;6202781;23;20019;-77
2023/01/27 09:14:51;;;;;;;7.05;2.20;;;;;;;;;;6203788;23;20061;-77
2023/01/27 09:17:18;;;;;;;5.47;2.22;;;;;;;;;;6178858;23;20024;-78
2023/01/27 09:19:45;;;;;;;8.05;2.50;;;;;;;;;;6179378;23;20038;-77
2023/01/27 09:22:11;;;;;;;3.50;1.63;;;;;;;;;;6204222;23;20062;-77
2023/01/27 09:24:37;;;;;;;4.28;1.35;;;;;;;;;;6179513;23;20012;-76
2023/01/27 09:27:03;;;;;;;4.25;1.75;;;;;;;;;;6203788;23;20395;-77
2023/01/27 09:29:30;;;;;;;5.07;1.67;;;;;;;;;;6179175;23;20115;-77
2023/01/27 09:31:56;;;;;;;6.43;1.92;;;;;;;;;;6178400;23;20408;-77
2023/01/27 09:34:22;;;;;;;3.22;1.83;;;;;;;;;;6204786;23;20021;-76
2023/01/27 09:36:50;;;;;;;4.05;2.33;;;;;;;;;;6179111;23;20191;-78
2023/01/27 09:39:18;;;;;;;4.40;2.40;;;;;;;;;;6204372;23;20023;-76
2023/01/27 09:41:44;;;;;;;6.03;2.50;;;;;;;;;;6182601;23;20081;-77
2023/01/27 09:44:29;;;;;;;3.92;2.50;;;;;;;;;;6196258;23;20007;-77
2023/01/27 09:47:15;;;;;;;3.17;2.25;;;;;;;;;;6234000;23;20023;-77
2023/01/27 09:49:57;;;;;;;5.22;2.20;;;;;;;;;;6152594;23;20031;-78
2023/01/27 09:52:32;;;;;;;6.40;2.88;;;;;;;;;;6180005;23;20016;-77
2023/01/27 09:55:08;;;;;;;6.00;2.40;;;;;;;;;;6208902;23;20019;-77
2023/01/27 09:57:53;;;;;;;2.67;1.73;;;;;;;;;;6187447;23;20016;-77
2023/01/27 10:00:25;;;;;;;3.53;2.58;;;;;;;;;;6208400;23;20020;-78
2023/01/27 10:02:57;;;;;;;2.45;2.10;;;;;;;;;;6206583;23;20099;-78
2023/01/27 10:05:32;;;;;;;2.65;2.40;;;;;;;;;;6177600;23;20019;-76
2023/01/27 10:08:09;;;;;;;2.67;2.45;;;;;;;;;;6202909;23;20690;-78
2023/01/27 10:10:35;;;;;;;3.03;2.60;;;;;;;;;;6203383;23;20027;-79
2023/01/27 10:13:22;;;;;;;3.65;2.75;;;;;;;;;;6229369;23;20016;-77
2023/01/27 10:16:00;;;;;;;3.95;2.80;;;;;;;;;;6229692;22;20027;-78
2023/01/27 10:18:29;;;;;;;8.75;3.17;;;;;;;;;;6201247;23;20751;-78
2023/01/27 10:21:14;;;;;;;6.38;3.30;;;;;;;;;;6178544;23;20082;-77
2023/01/27 10:23:40;;;;;;;5.60;2.90;;;;;;;;;;6230326;23;20445;-78
2023/01/27 10:26:14;;;;;;;3.92;3.40;;;;;;;;;;6204076;23;20012;-77
2023/01/27 10:28:46;;;;;;;6.18;4.57;;;;;;;;;;6203491;23;20437;-77
2023/01/27 10:31:20;;;;;;;3.28;2.97;;;;;;;;;;6178751;23;20024;-76
2023/01/27 10:33:51;;;;;;;4.63;3.50;;;;;;;;;;6205742;23;20055;-77
2023/01/27 10:36:23;;;;;;;3.30;2.83;;;;;;;;;;6180410;23;20070;-77
2023/01/27 10:38:58;;;;;;;4.13;3.17;;;;;;;;;;6181101;23;20046;-77
2023/01/27 10:41:24;;;;;;;4.53;3.35;;;;;;;;;;6181379;23;20023;-75
2023/01/27 10:44:09;;;;;;;6.35;3.17;;;;;;;;;;6204188;23;20069;-77
2023/01/27 10:46:35;;;;;;;6.97;3.50;;;;;;;;;;6178941;23;20023;-77
2023/01/27 10:49:06;;;;;;;5.25;3.50;;;;;;;;;;6203073;23;20052;-77
2023/01/27 10:51:38;;;;;;;3.40;3.00;;;;;;;;;;6203951;23;20061;-76
2023/01/27 10:54:14;;;;;;;4.43;4.03;;;;;;;;;;6204215;23;20754;-76
2023/01/27 10:56:43;;;;;;;7.00;4.03;;;;;;;;;;6230680;23;20465;-76
2023/01/27 10:59:28;;;;;;;3.90;3.40;;;;;;;;;;6203824;23;20328;-77
2023/01/27 11:02:14;;;;;;;5.20;3.65;;;;;;;;;;6204138;23;20024;-77
2023/01/27 11:04:46;;;;;;;3.58;3.28;;;;;;;;;;6178648;23;20738;-77
2023/01/27 11:07:16;;;;;;;6.20;3.58;;;;;;;;;;6231512;23;20784;-77
2023/01/27 11:09:55;;;;;;;4.25;3.85;;;;;;;;;;6179755;23;20041;-77
2023/01/27 11:12:48;;;;;;;3.65;3.35;;;;;;;;;;6180820;23;20071;-77
2023/01/27 11:15:14;;;;;;;4.25;3.13;;;;;;;;;;6197919;23;20016;-78
2023/01/27 11:17:48;;;;;;;5.35;3.80;;;;;;;;;;6180805;23;20020;-77
2023/01/27 11:20:14;;;;;;;;;;;;;;;;;;6210943;23;20520;-76
2023/01/27 11:23:03;;;;;;;4.30;3.95;;;;;;;;;;6246044;23;19943;-75
2023/01/27 11:25:51;;;;;;;4.72;4.22;;;;;;;;;;6177590;22;20011;-76
2023/01/27 11:28:23;;;;;;;5.07;3.58;;;;;;;;;;6236703;23;20031;-76
2023/01/27 11:30:49;;;;;;;4.32;3.95;;;;;;;;;;6232167;23;20080;-76
2023/01/27 11:33:25;;;;;;;3.95;3.60;;;;;;;;;;6182591;23;20483;-77
2023/01/27 11:35:52;;;;;;;4.20;3.70;;;;;;;;;;6206949;23;20048;-78
2023/01/27 11:38:20;;;;;;;4.55;4.15;;;;;;;;;;6182280;23;20022;-78
2023/01/27 11:40:49;;;;;;;4.57;4.10;;;;;;;;;;6181616;23;20020;-78
2023/01/27 11:43:17;;;;;;;4.57;4.07;;;;;;;;;;6207144;23;20127;-77
2023/01/27 11:45:45;;;;;;;4.65;4.25;;;;;;;;;;6180962;23;20418;-77
2023/01/27 11:48:13;;;;;;;6.10;3.72;;;;;;;;;;6183545;23;20027;-78
2023/01/27 11:50:40;;;;;;;4.88;3.80;;;;;;;;;;6206347;23;20027;-77
2023/01/27 11:53:16;;;;;;;3.60;3.28;;;;;;;;;;6206111;23;20050;-76
2023/01/27 11:55:45;;;;;;;3.53;3.00;;;;;;;;;;6206370;23;20027;-77
2023/01/27 11:58:22;;;;;;;3.65;3.20;;;;;;;;;;6204762;23;20024;-77
2023/01/27 12:00:56;;;;;;;3.40;3.10;;;;;;;;;;6179917;23;20024;-77
2023/01/27 12:03:22;;;;;;;;;;;;;;;;;;6205786;23;20433;-76
2023/01/27 12:05:55;;;;;;;3.03;2.38;;;;;;;;;;6232334;23;19922;-76
2023/01/27 12:08:36;;;;;;;6.07;3.05;;;;;;;;;;6205558;23;20016;-77
2023/01/27 12:11:19;;;;;;;4.00;3.00;;;;;;;;;;6205724;23;20042;-77
2023/01/27 12:13:50;;;;;;;3.10;2.80;;;;;;;;;;6180036;23;20111;-77
2023/01/27 12:16:16;;;;;;;2.70;2.50;;;;;;;;;;6205979;23;20051;-77
2023/01/27 12:18:52;;;;;;;4.35;3.58;;;;;;;;;;6179540;23;20012;-77
2023/01/27 12:21:18;;;;;;;7.85;3.30;;;;;;;;;;6234328;23;20020;-82
2023/01/27 12:23:55;;;;;;;5.30;3.47;;;;;;;;;;6181877;23;20094;-76
2023/01/27 12:26:50;;;;;;;3.92;3.20;;;;;;;;;;6179431;23;20057;-71
2023/01/27 12:29:20;;;;;;;2.63;2.42;;;;;;;;;;6173275;23;20086;-70
2023/01/27 12:31:51;;;;;;;4.82;2.35;;;;;;;;;;6198244;23;20017;-71
2023/01/27 12:34:33;;;;;;;1.70;1.60;;;;;;;;;;6199627;23;20029;-70
2023/01/27 12:37:02;;;;;;;2.22;1.38;;;;;;;;;;6199785;23;20020;-70
2023/01/27 12:39:51;;;;;;;1.15;1.10;;;;;;;;;;6198709;23;20066;-70
2023/01/27 12:42:35;;;;;;;1.77;0.90;;;;;;;;;;6201096;23;20055;-70
2023/01/27 12:45:15;;;;;;;1.77;1.35;;;;;;;;;;6198872;23;20662;-71
2023/01/27 12:47:53;;;;;;;4.72;1.40;;;;;;;;;;6200073;23;20096;-71
2023/01/27 12:50:21;;;;;;;1.48;1.30;;;;;;;;;;6201273;23;20857;-70
2023/01/27 12:53:03;;;;;;;2.60;1.52;;;;;;;;;;6200636;23;20083;-70
2023/01/27 12:55:31;;;;;;;2.10;1.23;;;;;;;;;;6200454;23;20020;-71
2023/01/27 12:57:57;;;;;;;1.27;1.10;;;;;;;;;;6201333;23;20016;-71
2023/01/27 13:00:24;;;;;;;1.45;1.35;;;;;;;;;;6203984;23;20024;-70
2023/01/27 13:02:52;;;;;;;1.33;1.23;;;;;;;;;;6204811;23;20029;-70
2023/01/27 13:05:18;;;;;;;1.42;1.00;;;;;;;;;;6211100;23;20024;-71
2023/01/27 13:07:51;;;;;;;2.05;1.85;;;;;;;;;;6211739;23;20016;-72
2023/01/27 13:10:24;;;;;;;1.50;1.40;;;;;;;;;;6225303;23;20023;-71
2023/01/27 13:12:52;;;;;;;1.33;1.23;;;;;;;;;;6227648;23;20099;-71
2023/01/27 13:15:19;;;;;;;1.33;1.20;;;;;;;;;;6215730;23;20080;-71
2023/01/27 13:17:47;;;;;;;2.72;1.17;;;;;;;;;;6200054;23;20023;-72
2023/01/27 13:20:39;;;;;;;4.43;1.20;;;;;;;;;;6200771;23;20438;-71
2023/01/27 13:23:18;;;;;;;1.50;1.40;;;;;;;;;;6199127;23;20048;-71
2023/01/27 13:26:03;;;;;;;2.42;1.35;;;;;;;;;;6198113;23;20016;-70
2023/01/27 13:28:32;;;;;;;2.67;1.50;;;;;;;;;;6197348;23;20116;-71
2023/01/27 13:31:02;;;;;;;1.40;1.30;;;;;;;;;;6200411;23;20019;-71
2023/01/27 13:33:47;;;;;;;2.65;1.45;;;;;;;;;;6228511;23;20028;-70
2023/01/27 13:36:24;;;;;;;2.03;1.67;;;;;;;;;;6229785;23;20016;-70
2023/01/27 13:38:57;;;;;;;4.93;1.52;;;;;;;;;;6176842;23;20020;-71
2023/01/27 13:41:46;;;;;;;2.85;1.70;;;;;;;;;;6229919;23;20016;-71
2023/01/27 13:44:21;;;;;;;3.35;1.73;;;;;;;;;;6210276;23;20031;-70
2023/01/27 13:46:48;;;;;;;1.55;1.45;;;;;;;;;;6201158;23;20008;-71
2023/01/27 13:49:23;;;;;;;3.05;1.88;;;;;;;;;;6228174;23;20024;-70
2023/01/27 13:51:49;;;;;;;2.60;1.65;;;;;;;;;;6201015;23;20060;-69
2023/01/27 13:54:15;;;;;;;2.15;1.88;;;;;;;;;;6227962;23;20146;-71
2023/01/27 13:57:00;;;;;;;1.95;1.50;;;;;;;;;;6202010;23;20438;-71
2023/01/27 13:59:45;;;;;;;1.88;1.35;;;;;;;;;;6202000;23;20466;-71
2023/01/27 14:02:39;;;;;;;2.28;1.65;;;;;;;;;;6226832;23;20019;-71
2023/01/27 14:05:05;;;;;;;3.45;1.48;;;;;;;;;;6202982;23;20016;-71
2023/01/27 14:07:34;;;;;;;2.05;1.30;;;;;;;;;;6202319;23;20023;-71
2023/01/27 14:10:19;;;;;;;1.30;1.20;;;;;;;;;;6230569;23;20078;-71
2023/01/27 14:12:48;;;;;;;1.45;1.35;;;;;;;;;;6177622;23;20104;-70
2023/01/27 14:15:28;;;;;;;1.85;1.48;;;;;;;;;;6230662;22;20051;-70
2023/01/27 14:18:07;;;;;;;3.20;1.60;;;;;;;;;;6228718;23;20383;-69
2023/01/27 14:20:57;;;;;;;1.65;1.45;;;;;;;;;;6175982;23;20051;-71
2023/01/27 14:23:42;;;;;;;2.45;1.75;;;;;;;;;;6055559;23;20027;-79
2023/01/27 14:26:17;;;;;;;1.70;1.60;;;;;;;;;;6187488;23;20019;-78
2023/01/27 14:29:02;;;;;;;3.45;1.40;;;;;;;;;;6211452;23;20019;-81
2023/01/27 14:31:34;;;;;;;2.53;1.67;;;;;;;;;;6180515;23;20020;-80
2023/01/27 14:34:19;;;;;;;2.58;2.00;;;;;;;;;;6202716;23;20028;-79
2023/01/27 14:37:12;;;;;;;3.83;2.00;;;;;;;;;;6174040;23;20024;-78
2023/01/27 14:39:56;;;;;;;2.80;1.77;;;;;;;;;;6190178;23;20039;-79
2023/01/27 14:42:29;;;;;;;3.88;1.90;;;;;;;;;;6175463;23;20065;-78
2023/01/27 14:45:18;;;;;;;3.00;1.83;;;;;;;;;;6175752;23;20103;-77
2023/01/27 14:47:57;;;;;;;1.63;1.40;;;;;;;;;;6207159;23;20013;-78
2023/01/27 14:50:27;;;;;;;2.88;1.77;;;;;;;;;;6214450;23;20023;-78
2023/01/27 14:53:12;;;;;;;1.73;1.50;;;;;;;;;;6220026;23;20023;-79
2023/01/27 14:55:53;;;;;;;2.05;1.38;;;;;;;;;;6230609;23;20009;-79
2023/01/27 14:58:29;;;;;;;2.33;1.42;;;;;;;;;;6232322;23;20156;-79
2023/01/27 15:01:13;;;;;;;4.47;2.97;;;;;;;;;;6204262;23;20024;-79
2023/01/27 15:03:39;;;;;;;;;;;;;;;;;;6198672;23;20020;-79
2023/01/27 15:06:08;;;;;;;7.25;2.00;;;;;;;;;;6200518;23;20535;-79
2023/01/27 15:08:34;;;;;;;2.88;1.60;;;;;;;;;;6201256;23;20023;-80
2023/01/27 15:11:19;;;;;;;2.88;1.80;;;;;;;;;;6174134;23;20054;-79
2023/01/27 15:13:45;;;;;;;;;;;;;;;;;;6175753;23;20016;-79
2023/01/27 15:16:11;;;;;;;3.88;1.40;;;;;;;;;;6202424;23;19992;-80
2023/01/27 15:18:55;;;;;;;1.98;1.35;;;;;;;;;;6201030;23;20032;-79
2023/01/27 15:21:40;;;;;;;2.67;1.55;;;;;;;;;;6174591;23;20074;-79
2023/01/27 15:24:06;;;;;;;1.67;1.40;;;;;;;;;;6177063;23;20078;-79
2023/01/27 15:26:33;;;;;;;2.13;1.40;;;;;;;;;;6177199;23;20016;-78
2023/01/27 15:29:00;;;;;;;2.30;1.50;;;;;;;;;;6203273;23;20103;-78
2023/01/27 15:31:28;;;;;;;1.30;1.20;;;;;;;;;;6202364;23;20016;-79
2023/01/27 15:33:55;;;;;;;2.47;1.50;;;;;;;;;;6204983;23;20083;-80
2023/01/27 15:36:28;;;;;;;5.45;1.40;;;;;;;;;;6179573;23;20066;-79
2023/01/27 15:39:09;;;;;;;1.50;1.33;;;;;;;;;;6178668;23;20016;-79